createdAt,value
2022-08-21T00:02:35.251Z,9.52
2022-08-21T00:07:36.873Z,12.18
2022-08-21T00:12:38.976Z,11.27
2022-08-21T00:17:40.940Z,11.13
2022-08-21T00:22:43.694Z,10.48
2022-08-21T00:27:45.413Z,11.02
2022-08-21T00:32:46.989Z,9.63
2022-08-21T00:37:48.867Z,10.23
2022-08-21T00:42:53.810Z,11.38
2022-08-21T00:47:55.568Z,11.52
2022-08-21T00:52:58.203Z,10.25
2022-08-21T00:58:02.256Z,10.95
2022-08-21T01:03:09.120Z,9.82
2022-08-21T01:08:11.614Z,10.13
2022-08-21T01:13:16.498Z,9.75
2022-08-21T01:18:18.360Z,9.55
2022-08-21T01:23:20.013Z,10.07
2022-08-21T01:28:23.252Z,11.10
2022-08-21T01:33:25.872Z,10.68
2022-08-21T01:38:27.700Z,10.73
2022-08-21T01:43:39.459Z,11.43
2022-08-21T01:48:43.325Z,10.30
2022-08-21T01:53:45.017Z,10.13
2022-08-21T01:58:48.016Z,10.35
2022-08-21T02:09:54.813Z,10.00
2022-08-21T02:14:57.645Z,9.90
2022-08-21T02:19:59.198Z,10.15
2022-08-21T02:25:01.178Z,10.30
2022-08-21T02:30:04.174Z,10.73
2022-08-21T02:35:08.051Z,9.88
2022-08-21T02:40:10.452Z,9.40
2022-08-21T02:45:13.593Z,9.32
2022-08-21T02:50:21.145Z,9.75
2022-08-21T02:55:26.746Z,9.07
2022-08-21T03:00:30.830Z,8.93
2022-08-21T03:05:35.339Z,9.98
2022-08-21T03:10:42.228Z,9.63
2022-08-21T03:20:46.161Z,8.98
2022-08-21T03:25:49.192Z,8.20
2022-08-21T03:30:53.234Z,9.93
2022-08-21T03:36:07.631Z,9.85
2022-08-21T03:41:10.420Z,9.95
2022-08-21T03:46:14.917Z,9.27
2022-08-21T03:51:16.503Z,10.60
2022-08-21T03:56:18.363Z,9.75
2022-08-21T04:01:20.126Z,10.43
2022-08-21T04:06:22.952Z,10.82
2022-08-21T04:11:25.338Z,11.30
2022-08-21T04:16:27.071Z,10.68
2022-08-21T04:21:29.035Z,11.77
2022-08-21T04:26:31.316Z,10.73
2022-08-21T04:31:34.340Z,10.80
2022-08-21T04:36:36.440Z,11.45
2022-08-21T04:41:38.540Z,11.13
2022-08-21T04:46:40.440Z,10.43
2022-08-21T04:51:42.854Z,10.50
2022-08-21T04:56:52.888Z,10.55
2022-08-21T05:01:56.054Z,9.63
2022-08-21T05:07:03.433Z,10.13
2022-08-21T05:12:05.445Z,8.40
2022-08-21T05:17:07.455Z,6.15
2022-08-21T05:22:09.271Z,5.35
2022-08-21T05:27:11.727Z,4.93
2022-08-21T05:32:15.392Z,4.50
2022-08-21T05:37:17.634Z,4.45
2022-08-21T05:42:22.052Z,5.53
2022-08-21T05:47:24.263Z,5.22
2022-08-21T05:52:28.545Z,5.38
2022-08-21T05:57:30.475Z,4.93
2022-08-21T06:02:32.026Z,4.60
2022-08-21T06:07:33.784Z,5.10
2022-08-21T06:12:35.444Z,5.22
2022-08-21T06:17:37.163Z,4.60
2022-08-21T06:22:38.771Z,5.53
2022-08-21T06:27:40.392Z,6.18
2022-08-21T06:32:42.584Z,5.00
2022-08-21T06:37:44.220Z,5.22
2022-08-21T06:42:45.954Z,4.63
2022-08-21T06:47:49.294Z,4.43
2022-08-21T06:52:58.730Z,4.80
2022-08-21T06:58:00.523Z,4.57
2022-08-21T07:03:03.140Z,4.70
2022-08-21T07:08:05.109Z,4.88
2022-08-21T07:13:07.034Z,4.70
2022-08-21T07:18:08.980Z,3.88
2022-08-21T07:23:33.244Z,4.45
2022-08-21T07:28:35.588Z,4.28
2022-08-21T07:33:38.039Z,3.45
2022-08-21T07:38:40.356Z,4.13
2022-08-21T07:43:46.081Z,4.30
2022-08-21T07:48:48.075Z,4.25
2022-08-21T07:53:52.402Z,3.80
2022-08-21T07:58:54.035Z,4.47
2022-08-21T08:03:56.346Z,3.08
2022-08-21T08:08:57.903Z,3.08
2022-08-21T08:13:59.607Z,2.65
2022-08-21T08:19:01.494Z,2.90
2022-08-21T08:24:19.466Z,2.85
2022-08-21T08:29:22.457Z,3.55
2022-08-21T08:34:25.643Z,2.60
2022-08-21T08:39:29.582Z,3.60
2022-08-21T08:44:31.696Z,3.20
2022-08-21T08:49:41.082Z,3.28
2022-08-21T08:54:49.091Z,2.80
2022-08-21T08:59:53.749Z,2.58
2022-08-21T09:04:56.763Z,2.58
2022-08-21T09:10:18.049Z,2.47
2022-08-21T09:15:58.446Z,3.22
2022-08-21T09:21:24.848Z,2.42
2022-08-21T09:26:50.759Z,2.83
2022-08-21T09:31:52.480Z,2.20
2022-08-21T09:36:54.472Z,2.40
2022-08-21T09:42:01.344Z,1.75
2022-08-21T09:47:03.165Z,1.90
2022-08-21T09:52:16.425Z,1.58
2022-08-21T09:57:29.520Z,1.90
2022-08-21T10:02:36.692Z,1.80
2022-08-21T10:07:39.146Z,1.70
2022-08-21T10:12:55.939Z,1.92
2022-08-21T10:18:26.464Z,1.48
2022-08-21T10:23:31.038Z,2.10
2022-08-21T10:28:47.577Z,1.88
2022-08-21T10:33:52.287Z,1.30
2022-08-21T10:44:47.592Z,1.80
2022-08-21T10:50:08.238Z,1.90
2022-08-21T10:55:15.168Z,1.90
2022-08-21T11:00:21.425Z,2.10
2022-08-21T11:05:25.871Z,1.52
2022-08-21T11:10:37.451Z,1.67
2022-08-21T11:16:06.323Z,1.92
2022-08-21T11:21:27.901Z,1.50
2022-08-21T11:26:42.208Z,1.30
2022-08-21T11:37:12.240Z,1.40
2022-08-21T11:42:31.250Z,1.15
2022-08-21T11:48:28.834Z,1.50
2022-08-21T11:53:43.615Z,1.33
2022-08-21T11:58:54.505Z,1.52
2022-08-21T12:04:05.156Z,1.50
2022-08-21T12:09:26.367Z,1.15
2022-08-21T12:14:48.773Z,1.50
2022-08-21T12:20:02.227Z,1.48
2022-08-21T12:25:12.397Z,1.97
2022-08-21T12:30:29.028Z,1.20
2022-08-21T12:35:39.982Z,1.20
2022-08-21T12:40:51.323Z,1.20
2022-08-21T12:45:53.008Z,1.35
2022-08-21T12:51:12.744Z,1.48
2022-08-21T12:56:19.987Z,1.35
2022-08-21T13:01:37.084Z,1.23
2022-08-21T13:06:46.591Z,1.58
2022-08-21T13:11:49.820Z,1.70
2022-08-21T13:16:59.937Z,1.67
2022-08-21T13:22:02.861Z,1.83
2022-08-21T13:27:28.823Z,0.98
2022-08-21T13:32:33.004Z,1.02
2022-08-21T13:37:36.067Z,1.70
2022-08-21T13:42:41.669Z,1.95
2022-08-21T13:47:46.461Z,1.42
2022-08-21T13:53:04.577Z,1.15
2022-08-21T13:58:07.529Z,1.38
2022-08-21T14:03:11.902Z,1.85
2022-08-21T14:13:44.626Z,1.67
2022-08-21T14:19:03.750Z,1.65
2022-08-21T14:24:15.187Z,1.60
2022-08-21T14:29:25.178Z,1.10
2022-08-21T14:34:34.097Z,1.50
2022-08-21T14:39:40.687Z,1.85
2022-08-21T14:44:45.404Z,1.95
2022-08-21T14:49:47.040Z,1.60
2022-08-21T14:54:48.613Z,1.48
2022-08-21T14:59:50.339Z,1.55
2022-08-21T15:04:52.141Z,2.00
2022-08-21T15:09:53.936Z,1.70
2022-08-21T15:14:55.668Z,1.60
2022-08-21T15:19:57.367Z,1.52
2022-08-21T15:24:58.941Z,1.65
2022-08-21T15:30:00.762Z,1.70
2022-08-21T15:35:02.752Z,1.25
2022-08-21T15:40:07.047Z,1.25
2022-08-21T15:45:10.967Z,1.48
2022-08-21T15:50:13.654Z,1.58
2022-08-21T15:55:15.989Z,1.40
2022-08-21T16:00:24.160Z,1.33
2022-08-21T16:05:25.961Z,1.45
2022-08-21T16:10:30.090Z,1.40
2022-08-21T16:15:32.526Z,1.10
2022-08-21T16:20:34.269Z,1.70
2022-08-21T16:25:39.973Z,1.13
2022-08-21T16:30:44.393Z,1.58
2022-08-21T16:35:47.603Z,1.27
2022-08-21T16:40:49.500Z,1.48
2022-08-21T16:45:51.391Z,1.40
2022-08-21T16:50:53.180Z,1.77
2022-08-21T16:55:55.041Z,1.20
2022-08-21T17:00:58.200Z,1.20
2022-08-21T17:06:00.964Z,1.70
2022-08-21T17:11:05.006Z,1.45
2022-08-21T17:16:06.935Z,1.02
2022-08-21T17:21:08.557Z,1.20
2022-08-21T17:26:11.571Z,1.33
2022-08-21T17:31:14.727Z,1.33
2022-08-21T17:36:18.649Z,1.08
2022-08-21T17:41:21.498Z,1.17
2022-08-21T17:46:29.768Z,1.38
2022-08-21T17:51:31.752Z,1.05
2022-08-21T17:56:37.581Z,1.38
2022-08-21T18:01:42.184Z,1.00
2022-08-21T18:06:44.507Z,1.13
2022-08-21T18:11:46.520Z,1.48
2022-08-21T18:16:49.675Z,1.33
2022-08-21T18:21:55.751Z,1.13
2022-08-21T18:26:57.433Z,1.58
2022-08-21T18:31:59.238Z,1.25
2022-08-21T18:37:02.307Z,1.30
2022-08-21T18:42:09.680Z,1.50
2022-08-21T18:47:18.175Z,1.67
2022-08-21T18:52:20.933Z,1.35
2022-08-21T18:57:28.260Z,1.52
2022-08-21T19:02:30.307Z,0.90
2022-08-21T19:07:32.124Z,1.00
2022-08-21T19:12:34.462Z,1.10
2022-08-21T19:17:37.832Z,1.15
2022-08-21T19:22:40.821Z,1.33
2022-08-21T19:27:43.204Z,1.95
2022-08-21T19:32:47.750Z,1.23
2022-08-21T19:37:49.417Z,1.90
2022-08-21T19:42:54.221Z,1.40
2022-08-21T19:47:56.126Z,1.50
2022-08-21T19:53:00.802Z,1.65
2022-08-21T19:58:04.610Z,1.15
2022-08-21T20:03:07.179Z,1.60
2022-08-21T20:08:20.295Z,1.38
2022-08-21T20:13:23.316Z,1.65
2022-08-21T20:18:26.732Z,1.08
2022-08-21T20:28:51.650Z,1.92
2022-08-21T20:33:53.475Z,1.42
2022-08-21T20:38:56.395Z,1.17
2022-08-21T20:43:59.921Z,1.88
2022-08-21T20:49:02.496Z,1.55
2022-08-21T20:54:35.232Z,1.55
2022-08-21T20:59:58.507Z,1.67
2022-08-21T21:05:05.815Z,1.95
2022-08-21T21:10:24.887Z,1.25
2022-08-21T21:15:33.304Z,1.05
2022-08-21T21:20:45.756Z,1.83
2022-08-21T21:25:57.546Z,1.40
2022-08-21T21:30:59.165Z,1.90
2022-08-21T21:36:16.433Z,1.52
2022-08-21T21:41:35.420Z,1.75
2022-08-21T21:46:50.708Z,2.13
2022-08-21T21:52:33.048Z,1.27
2022-08-21T21:57:58.837Z,1.63
2022-08-21T22:03:16.488Z,1.60
2022-08-21T22:14:03.050Z,2.00
2022-08-21T22:19:26.925Z,2.00
2022-08-21T22:24:32.495Z,2.05
2022-08-21T22:30:03.517Z,1.55
2022-08-21T22:35:23.599Z,1.98
2022-08-21T22:40:32.355Z,1.27
2022-08-21T22:46:08.865Z,2.38
2022-08-21T22:56:59.747Z,2.28
2022-08-21T23:02:07.646Z,1.55
2022-08-21T23:07:33.784Z,1.88
2022-08-21T23:12:43.731Z,1.63
2022-08-21T23:17:55.058Z,1.95
2022-08-21T23:23:27.435Z,1.77
2022-08-21T23:28:41.767Z,2.22
2022-08-21T23:33:51.916Z,1.77
2022-08-21T23:45:31.616Z,2.17
2022-08-21T23:50:48.371Z,2.38
2022-08-21T23:55:55.254Z,2.00
